Time;durP1;ratioP1;P1;durP2;ratioP2;P2;SDS_P1;SDS_P2;PMS_P1;PMS_P2;Temp;Humidity;BMP_temperature;BMP_pressure;BME280_temperature;BME280_humidity;BME280_pressure;Samples;Min_cycle;Max_cycle;Signal;HPM_P1;HPM_P2
2023/09/05 08:17:13;;;;;;;;;4.75;4.75;;;;;;;;5053992;27;13393;-67
2023/09/05 08:19:44;;;;;;;;;5.67;5.67;;;;;;;;5078653;27;11068;-69
2023/09/05 08:22:10;;;;;;;;;8.25;7.00;;;;;;;;5058330;28;9686;-70
2023/09/05 08:24:35;;;;;;;;;6.67;4.00;;;;;;;;5045911;28;8831;-69
2023/09/05 08:27:02;;;;;;;;;7.67;6.67;;;;;;;;5045743;28;8819;-70
2023/09/05 08:29:27;;;;;;;;;7.00;5.75;;;;;;;;5046139;28;8823;-70
2023/09/05 08:31:54;;;;;;;;;5.33;4.33;;;;;;;;5046017;28;8807;-71
2023/09/05 08:34:19;;;;;;;;;6.00;5.00;;;;;;;;5046014;28;8834;-70
2023/09/05 08:36:44;;;;;;;;;6.00;6.00;;;;;;;;5045558;28;8827;-69
2023/09/05 08:39:10;;;;;;;;;5.00;5.00;;;;;;;;5043822;28;8807;-69
2023/09/05 08:41:35;;;;;;;;;9.00;9.00;;;;;;;;5041652;28;8834;-67
2023/09/05 08:44:01;;;;;;;;;10.33;10.33;;;;;;;;5012711;28;11274;-66
2023/09/05 08:46:27;;;;;;;;;12.00;11.33;;;;;;;;5045651;28;8842;-66
2023/09/05 08:48:53;;;;;;;;;6.25;5.00;;;;;;;;5046163;28;8796;-68
2023/09/05 08:51:19;;;;;;;;;11.00;10.00;;;;;;;;5045933;28;8830;-68
2023/09/05 08:53:49;;;;;;;;;5.50;5.50;;;;;;;;5042939;28;8844;-71
2023/09/05 08:56:17;;;;;;;;;6.40;5.00;;;;;;;;5044685;28;8929;-68
2023/09/05 08:58:43;;;;;;;;;9.25;8.75;;;;;;;;5044631;28;8819;-69
2023/09/05 09:01:11;;;;;;;;;8.00;8.00;;;;;;;;5044860;28;8780;-68
2023/09/05 09:03:36;;;;;;;;;4.00;4.00;;;;;;;;5044539;28;8877;-68
2023/09/05 09:06:04;;;;;;;;;5.50;4.00;;;;;;;;5040448;28;8843;-70
2023/09/05 09:08:42;;;;;;;;;5.40;5.40;;;;;;;;5052995;23;8892;-66
2023/09/05 09:11:08;;;;;;;;;4.00;3.60;;;;;;;;5022170;28;8828;-67
2023/09/05 09:13:34;;;;;;;;;4.75;4.75;;;;;;;;5006999;28;8878;-67
2023/09/05 09:15:59;;;;;;;;;4.00;4.00;;;;;;;;5007159;28;8848;-67
2023/09/05 09:18:26;;;;;;;;;4.00;4.00;;;;;;;;5007052;28;8923;-67
2023/09/05 09:20:52;;;;;;;;;4.40;4.40;;;;;;;;5007015;28;8831;-67
2023/09/05 09:23:24;;;;;;;;;5.00;5.00;;;;;;;;5006548;28;8817;-65
2023/09/05 09:25:50;;;;;;;;;4.80;4.20;;;;;;;;5006477;28;8849;-65
2023/09/05 09:28:34;;;;;;;;;5.25;5.25;;;;;;;;4995583;28;8863;-65
2023/09/05 09:31:01;;;;;;;;;5.00;5.00;;;;;;;;4993830;28;9535;-64
2023/09/05 09:33:27;;;;;;;;;5.20;5.20;;;;;;;;4993720;28;8821;-65
2023/09/05 09:36:03;;;;;;;;;15.50;14.25;;;;;;;;4993627;28;9745;-65
2023/09/05 09:38:29;;;;;;;;;7.00;7.00;;;;;;;;4993847;28;8796;-65
2023/09/05 09:40:55;;;;;;;;;7.50;7.00;;;;;;;;4993543;28;8888;-65
2023/09/05 09:43:20;;;;;;;;;4.80;4.80;;;;;;;;4993292;28;8963;-65
2023/09/05 09:45:46;;;;;;;;;5.50;5.50;;;;;;;;4993573;28;9181;-65
2023/09/05 09:48:14;;;;;;;;;4.75;4.50;;;;;;;;4993708;28;8797;-65
2023/09/05 09:50:39;;;;;;;;;6.00;5.00;;;;;;;;4993576;28;8788;-65
2023/09/05 09:53:08;;;;;;;;;3.00;3.00;;;;;;;;4993518;28;8916;-65
2023/09/05 09:55:34;;;;;;;;;5.00;4.60;;;;;;;;4993282;28;8963;-65
2023/09/05 09:58:08;;;;;;;;;5.60;5.60;;;;;;;;4993186;28;8817;-65
2023/09/05 10:00:35;;;;;;;;;7.00;7.00;;;;;;;;4993577;28;8875;-65
2023/09/05 10:03:01;;;;;;;;;6.40;6.00;;;;;;;;4993498;28;8832;-65
2023/09/05 10:05:30;;;;;;;;;8.00;7.00;;;;;;;;4993492;28;8970;-65
2023/09/05 10:07:55;;;;;;;;;4.60;4.60;;;;;;;;4993717;28;8817;-66
2023/09/05 10:10:22;;;;;;;;;6.25;6.00;;;;;;;;4991821;28;8821;-66
2023/09/05 10:12:49;;;;;;;;;5.00;5.00;;;;;;;;4992871;28;8801;-66
2023/09/05 10:15:15;;;;;;;;;6.40;6.40;;;;;;;;4993204;28;8935;-66
2023/09/05 10:17:42;;;;;;;;;7.00;6.00;;;;;;;;4992690;28;8797;-65
2023/09/05 10:20:07;;;;;;;;;5.00;5.00;;;;;;;;4993032;28;8929;-66
2023/09/05 10:22:35;;;;;;;;;6.75;6.00;;;;;;;;4993070;28;8927;-66
2023/09/05 10:25:03;;;;;;;;;5.80;5.80;;;;;;;;4992792;28;8805;-65
2023/09/05 10:27:28;;;;;;;;;6.80;5.80;;;;;;;;4993008;28;8911;-66
2023/09/05 10:29:53;;;;;;;;;5.75;4.75;;;;;;;;4992846;28;9655;-66
2023/09/05 10:32:20;;;;;;;;;6.00;5.50;;;;;;;;4992964;28;8805;-66
2023/09/05 10:34:48;;;;;;;;;4.80;4.80;;;;;;;;4992666;28;8801;-65
2023/09/05 10:37:14;;;;;;;;;5.40;5.40;;;;;;;;4992260;28;8793;-65
2023/09/05 10:39:49;;;;;;;;;5.25;5.25;;;;;;;;4990258;28;8875;-65
2023/09/05 10:42:15;;;;;;;;;6.60;5.80;;;;;;;;4992593;28;8891;-65
2023/09/05 10:44:44;;;;;;;;;5.00;5.00;;;;;;;;4992504;28;8817;-65
2023/09/05 10:47:31;;;;;;;;;8.00;8.00;;;;;;;;4992390;28;8864;-65
2023/09/05 10:49:58;;;;;;;;;6.00;6.00;;;;;;;;4992569;28;8897;-65
2023/09/05 10:52:26;;;;;;;;;5.50;5.50;;;;;;;;4992070;28;8863;-65
2023/09/05 10:54:52;;;;;;;;;6.25;5.75;;;;;;;;4992457;28;8829;-65
2023/09/05 10:57:50;;;;;;;;;7.00;6.00;;;;;;;;4991821;28;8972;-65
2023/09/05 11:00:26;;;;;;;;;6.75;6.00;;;;;;;;4991543;28;8946;-71
2023/09/05 11:02:53;;;;;;;;;6.75;6.75;;;;;;;;4992145;28;8816;-65
2023/09/05 11:05:19;;;;;;;;;8.25;7.50;;;;;;;;4992375;28;8871;-66
2023/09/05 11:07:50;;;;;;;;;5.25;5.25;;;;;;;;4991951;28;8781;-65
2023/09/05 11:10:25;;;;;;;;;8.00;6.00;;;;;;;;4991498;28;8793;-67
2023/09/05 11:12:50;;;;;;;;;5.75;5.75;;;;;;;;4989384;28;8883;-66
2023/09/05 11:15:37;;;;;;;;;6.67;6.00;;;;;;;;4990008;28;8817;-70
2023/09/05 11:18:04;;;;;;;;;4.50;4.50;;;;;;;;4989523;28;8866;-67
2023/09/05 11:20:39;;;;;;;;;5.75;5.50;;;;;;;;4990851;28;8815;-66
2023/09/05 11:23:13;;;;;;;;;7.00;7.00;;;;;;;;4990933;28;8809;-67
2023/09/05 11:25:47;;;;;;;;;7.00;7.00;;;;;;;;4990689;28;8833;-66
2023/09/05 11:28:13;;;;;;;;;5.25;5.25;;;;;;;;4991429;28;8878;-67
2023/09/05 11:30:40;;;;;;;;;6.75;6.00;;;;;;;;4990933;28;8871;-66
2023/09/05 11:33:06;;;;;;;;;6.75;6.00;;;;;;;;4991215;28;8848;-67
2023/09/05 11:35:32;;;;;;;;;6.25;6.25;;;;;;;;4991303;28;8867;-66
2023/09/05 11:37:58;;;;;;;;;4.00;4.00;;;;;;;;4991255;28;8860;-67
2023/09/05 11:40:25;;;;;;;;;5.00;5.00;;;;;;;;4990747;28;8793;-66
2023/09/05 11:43:00;;;;;;;;;5.75;5.25;;;;;;;;4989849;28;8860;-66
2023/09/05 11:45:25;;;;;;;;;5.25;5.25;;;;;;;;4991013;28;8912;-66
2023/09/05 11:47:51;;;;;;;;;3.00;3.00;;;;;;;;4991141;28;8797;-67
2023/09/05 11:50:18;;;;;;;;;7.00;6.00;;;;;;;;4990184;28;8833;-67
2023/09/05 11:52:44;;;;;;;;;5.00;5.00;;;;;;;;4990858;28;8825;-65
2023/09/05 11:55:10;;;;;;;;;6.00;5.00;;;;;;;;4985628;28;8880;-64
2023/09/05 11:57:36;;;;;;;;;6.00;6.00;;;;;;;;4973990;28;8925;-64
2023/09/05 12:00:07;;;;;;;;;4.75;4.75;;;;;;;;4971735;28;8815;-65
2023/09/05 12:02:34;;;;;;;;;5.50;4.50;;;;;;;;4971545;28;8828;-66
2023/09/05 12:05:00;;;;;;;;;6.00;5.75;;;;;;;;4971256;28;9736;-64
2023/09/05 12:07:25;;;;;;;;;6.00;5.00;;;;;;;;4971439;28;8930;-66
2023/09/05 12:09:53;;;;;;;;;5.33;5.00;;;;;;;;4971626;28;11499;-66
2023/09/05 12:12:19;;;;;;;;;4.50;4.50;;;;;;;;4971518;28;8909;-65
2023/09/05 12:14:55;;;;;;;;;5.00;5.00;;;;;;;;4971632;28;8835;-68
2023/09/05 12:17:22;;;;;;;;;5.75;5.75;;;;;;;;4973677;28;8849;-68
2023/09/05 12:19:48;;;;;;;;;4.75;4.75;;;;;;;;4977903;28;8847;-68
2023/09/05 12:22:26;;;;;;;;;5.00;5.00;;;;;;;;4980526;28;8839;-71
2023/09/05 12:25:10;;;;;;;;;5.25;5.25;;;;;;;;4979805;28;8803;-72
2023/09/05 12:27:36;;;;;;;;;6.00;6.00;;;;;;;;4980151;28;8834;-72
2023/09/05 12:30:01;;;;;;;;;4.00;4.00;;;;;;;;4980266;28;8833;-72
2023/09/05 12:32:27;;;;;;;;;6.33;5.00;;;;;;;;4978953;28;8928;-72
2023/09/05 12:34:53;;;;;;;;;6.00;6.00;;;;;;;;4981099;28;9601;-72
2023/09/05 12:37:18;;;;;;;;;6.67;6.67;;;;;;;;4979584;28;8816;-71
2023/09/05 12:39:43;;;;;;;;;6.67;6.67;;;;;;;;4980806;28;11491;-71
2023/09/05 12:42:09;;;;;;;;;7.33;7.00;;;;;;;;4980145;28;8830;-71
2023/09/05 12:44:35;;;;;;;;;7.25;6.00;;;;;;;;4979468;28;8924;-71
2023/09/05 12:47:00;;;;;;;;;3.67;2.00;;;;;;;;4979968;28;8994;-71
2023/09/05 12:49:25;;;;;;;;;3.67;3.67;;;;;;;;4979582;28;8809;-72
2023/09/05 12:51:50;;;;;;;;;5.33;5.33;;;;;;;;4981551;28;8793;-71
2023/09/05 12:54:16;;;;;;;;;8.00;6.00;;;;;;;;4980671;28;8849;-71
2023/09/05 12:56:43;;;;;;;;;10.00;9.00;;;;;;;;4975972;28;8859;-72
2023/09/05 12:59:09;;;;;;;;;5.25;5.25;;;;;;;;4970936;28;12232;-73
2023/09/05 13:01:34;;;;;;;;;7.00;6.00;;;;;;;;4970878;28;8812;-77
2023/09/05 13:04:01;;;;;;;;;7.67;7.00;;;;;;;;4974680;28;8796;-75
2023/09/05 13:06:26;;;;;;;;;5.25;5.25;;;;;;;;4974374;28;8843;-74
2023/09/05 13:08:52;;;;;;;;;7.67;7.00;;;;;;;;4974400;28;8831;-71
2023/09/05 13:11:17;;;;;;;;;6.67;5.00;;;;;;;;4974510;28;8815;-74
2023/09/05 13:13:43;;;;;;;;;5.33;5.33;;;;;;;;4973364;28;8885;-69
2023/09/05 13:16:09;;;;;;;;;7.75;7.50;;;;;;;;4974527;28;8835;-69
2023/09/05 13:18:34;;;;;;;;;9.00;7.00;;;;;;;;4976911;28;9589;-70
2023/09/05 13:20:59;;;;;;;;;7.33;6.33;;;;;;;;4994081;28;8936;-68
2023/09/05 13:23:24;;;;;;;;;6.33;6.33;;;;;;;;5011350;28;8868;-69
2023/09/05 13:25:50;;;;;;;;;5.33;5.33;;;;;;;;5012637;28;8962;-68
2023/09/05 13:28:16;;;;;;;;;5.33;5.33;;;;;;;;5013451;28;8849;-67
2023/09/05 13:30:41;;;;;;;;;8.00;6.00;;;;;;;;4991070;28;8816;-67
2023/09/05 13:33:09;;;;;;;;;7.00;7.00;;;;;;;;4984166;28;8825;-68
2023/09/05 13:35:36;;;;;;;;;6.75;5.00;;;;;;;;4972827;28;8854;-68
2023/09/05 13:38:01;;;;;;;;;4.75;4.75;;;;;;;;4982545;28;8825;-66
2023/09/05 13:40:28;;;;;;;;;7.00;7.00;;;;;;;;4993183;28;9598;-67
2023/09/05 13:42:53;;;;;;;;;4.00;4.00;;;;;;;;4993251;28;8805;-67
2023/09/05 13:45:19;;;;;;;;;6.00;5.00;;;;;;;;4991809;28;8880;-67
2023/09/05 13:47:44;;;;;;;;;5.67;4.33;;;;;;;;4992100;28;8813;-67
2023/09/05 13:50:10;;;;;;;;;4.67;4.67;;;;;;;;4993370;28;8836;-67
2023/09/05 13:52:35;;;;;;;;;5.00;5.00;;;;;;;;4992206;28;8813;-66
2023/09/05 13:55:01;;;;;;;;;7.00;7.00;;;;;;;;4992833;28;8821;-66
2023/09/05 13:57:26;;;;;;;;;4.00;3.67;;;;;;;;4993392;28;8912;-66
2023/09/05 13:59:51;;;;;;;;;7.33;6.00;;;;;;;;4993244;28;8809;-67
2023/09/05 14:02:17;;;;;;;;;5.00;5.00;;;;;;;;4992000;28;9540;-66
2023/09/05 14:04:42;;;;;;;;;7.67;6.67;;;;;;;;4992840;28;8824;-67
2023/09/05 14:07:07;;;;;;;;;6.67;6.00;;;;;;;;4993249;28;9543;-66
2023/09/05 14:09:34;;;;;;;;;6.00;6.00;;;;;;;;4991428;28;8867;-66
2023/09/05 14:11:59;;;;;;;;;6.00;6.00;;;;;;;;4992980;28;8788;-66
2023/09/05 14:14:24;;;;;;;;;6.00;6.00;;;;;;;;4991781;28;8805;-67
2023/09/05 14:16:53;;;;;;;;;6.00;6.00;;;;;;;;4991930;28;8940;-80
2023/09/05 14:19:19;;;;;;;;;6.75;6.75;;;;;;;;4992829;28;8805;-77
2023/09/05 14:21:44;;;;;;;;;7.00;6.00;;;;;;;;4992784;28;9555;-79
2023/09/05 14:24:11;;;;;;;;;5.33;5.33;;;;;;;;4991872;28;8813;-68
2023/09/05 14:26:36;;;;;;;;;7.00;7.00;;;;;;;;4986999;28;8866;-71
2023/09/05 14:29:03;;;;;;;;;9.33;8.67;;;;;;;;4971152;28;8835;-71
2023/09/05 14:31:29;;;;;;;;;9.00;6.00;;;;;;;;4972115;28;8838;-72
2023/09/05 14:33:55;;;;;;;;;9.00;7.33;;;;;;;;4972769;28;8924;-72
2023/09/05 14:36:20;;;;;;;;;8.00;8.00;;;;;;;;4972680;28;8839;-72
2023/09/05 14:38:46;;;;;;;;;11.00;9.00;;;;;;;;4972561;28;8977;-71
2023/09/05 14:41:11;;;;;;;;;8.00;6.00;;;;;;;;4972044;28;8815;-73
2023/09/05 14:43:36;;;;;;;;;7.00;7.00;;;;;;;;4972979;28;8825;-73
2023/09/05 14:46:01;;;;;;;;;7.00;7.00;;;;;;;;4972681;28;8858;-71
2023/09/05 14:48:27;;;;;;;;;6.33;5.33;;;;;;;;4987643;28;8835;-71
2023/09/05 14:50:52;;;;;;;;;9.33;9.33;;;;;;;;4972907;28;8839;-71
2023/09/05 14:53:17;;;;;;;;;8.33;7.00;;;;;;;;4988991;28;9105;-70
2023/09/05 14:55:43;;;;;;;;;9.33;6.33;;;;;;;;4991570;28;8824;-71
2023/09/05 14:58:08;;;;;;;;;8.00;8.00;;;;;;;;4981452;28;8816;-72
2023/09/05 15:00:33;;;;;;;;;6.00;6.00;;;;;;;;4982699;28;8821;-71
2023/09/05 15:02:58;;;;;;;;;7.67;7.67;;;;;;;;4990143;28;8836;-71
2023/09/05 15:05:24;;;;;;;;;12.00;10.00;;;;;;;;4972673;28;8851;-71
2023/09/05 15:07:50;;;;;;;;;12.33;12.00;;;;;;;;4971246;28;8827;-71
2023/09/05 15:10:15;;;;;;;;;9.00;8.00;;;;;;;;4971297;28;8804;-72
2023/09/05 15:12:40;;;;;;;;;7.33;6.67;;;;;;;;4972653;28;8784;-70
2023/09/05 15:15:06;;;;;;;;;9.67;9.00;;;;;;;;4987376;28;9535;-71
2023/09/05 15:17:31;;;;;;;;;15.00;13.00;;;;;;;;4972430;28;8815;-72
2023/09/05 15:19:57;;;;;;;;;14.33;13.00;;;;;;;;4981659;28;8790;-75
2023/09/05 15:22:22;;;;;;;;;10.00;10.00;;;;;;;;5002053;28;8914;-75
2023/09/05 15:24:47;;;;;;;;;6.33;6.00;;;;;;;;4991016;28;8942;-74
2023/09/05 15:27:13;;;;;;;;;11.00;10.00;;;;;;;;4991837;28;8828;-72
2023/09/05 15:29:38;;;;;;;;;8.33;7.33;;;;;;;;4991706;28;8809;-74
2023/09/05 15:32:03;;;;;;;;;8.33;6.67;;;;;;;;4990416;28;8837;-73
2023/09/05 15:34:29;;;;;;;;;8.33;8.33;;;;;;;;4991638;28;8827;-73
2023/09/05 15:36:55;;;;;;;;;6.67;6.00;;;;;;;;4990318;28;8824;-71
2023/09/05 15:39:20;;;;;;;;;10.33;10.00;;;;;;;;4989874;28;10079;-70
2023/09/05 15:41:45;;;;;;;;;9.67;7.00;;;;;;;;4983022;28;8929;-71
2023/09/05 15:44:11;;;;;;;;;9.33;9.33;;;;;;;;4979616;28;8821;-72
2023/09/05 15:46:36;;;;;;;;;8.33;7.33;;;;;;;;4979553;28;8836;-72
2023/09/05 15:49:01;;;;;;;;;7.33;6.33;;;;;;;;4981274;28;8812;-72
2023/09/05 15:51:27;;;;;;;;;6.33;6.33;;;;;;;;4984361;28;8797;-74
2023/09/05 15:53:52;;;;;;;;;8.00;7.00;;;;;;;;4983377;28;8846;-74
2023/09/05 15:56:19;;;;;;;;;16.00;15.00;;;;;;;;4978393;28;8824;-72
2023/09/05 15:58:44;;;;;;;;;8.00;7.00;;;;;;;;4982873;28;8808;-74
2023/09/05 16:01:09;;;;;;;;;11.67;9.67;;;;;;;;4981617;28;8882;-74
2023/09/05 16:03:35;;;;;;;;;11.33;11.33;;;;;;;;4978702;28;8823;-74
